createdAt,value
2018-07-17T00:01:02.344Z,100723.48
2018-07-17T00:03:33.504Z,100728.94
2018-07-17T00:06:03.988Z,100727.09
2018-07-17T00:08:34.400Z,100726.84
2018-07-17T00:11:04.761Z,100718.47
2018-07-17T00:13:34.852Z,100717.12
2018-07-17T00:16:05.029Z,100718.72
2018-07-17T00:18:35.159Z,100716.65
2018-07-17T00:21:05.491Z,100712.27
2018-07-17T00:23:35.637Z,100714.36
2018-07-17T00:26:05.870Z,100715.56
2018-07-17T00:28:35.976Z,100714.94
2018-07-17T00:31:06.089Z,100724.56
2018-07-17T00:33:36.351Z,100720.55
2018-07-17T00:36:06.724Z,100718.22
2018-07-17T00:38:36.866Z,100719.56
2018-07-17T00:41:07.243Z,100717.14
2018-07-17T00:43:37.420Z,100713.02
2018-07-17T00:46:07.827Z,100712.05
2018-07-17T00:48:37.955Z,100711.54
2018-07-17T00:51:08.212Z,100715.06
2018-07-17T00:53:38.380Z,100708.52
2018-07-17T00:56:08.632Z,100711.56
2018-07-17T00:58:38.399Z,100715.20
2018-07-17T01:01:07.449Z,100717.98
2018-07-17T01:03:42.506Z,100712.64
2018-07-17T01:06:17.825Z,100713.59
2018-07-17T01:08:53.221Z,100714.09
2018-07-17T01:11:28.211Z,100708.75
2018-07-17T01:14:19.463Z,100708.37
2018-07-17T01:16:50.360Z,100710.30
2018-07-17T01:19:20.544Z,100713.32
2018-07-17T01:21:50.625Z,100707.45
2018-07-17T01:24:20.803Z,100705.13
2018-07-17T01:26:50.985Z,100707.80
2018-07-17T01:29:21.405Z,100706.80
2018-07-17T01:31:51.539Z,100701.81
2018-07-17T01:34:21.747Z,100706.91
2018-07-17T01:36:52.753Z,100694.99
2018-07-17T01:39:22.901Z,100693.91
2018-07-17T01:41:53.113Z,100691.33
2018-07-17T01:44:23.211Z,100699.67
2018-07-17T01:46:53.440Z,100693.83
2018-07-17T01:49:23.656Z,100695.89
2018-07-17T01:51:53.962Z,100704.07
2018-07-17T01:54:24.291Z,100705.13
2018-07-17T01:56:54.380Z,100697.95
2018-07-17T01:59:24.550Z,100700.70
2018-07-17T02:01:54.775Z,100700.31
2018-07-17T02:04:25.002Z,100700.08
2018-07-17T02:06:55.102Z,100703.88
2018-07-17T02:09:26.343Z,100700.95
2018-07-17T02:11:56.497Z,100695.37
2018-07-17T02:14:26.669Z,100695.83
2018-07-17T02:16:56.980Z,100694.03
2018-07-17T02:19:27.173Z,100697.41
2018-07-17T02:21:57.272Z,100695.00
2018-07-17T02:24:27.392Z,100694.87
2018-07-17T02:26:57.550Z,100693.39
2018-07-17T02:29:27.383Z,100698.31
2018-07-17T02:31:57.494Z,100696.08
2018-07-17T02:34:27.692Z,100698.74
2018-07-17T02:36:57.887Z,100702.00
2018-07-17T02:39:28.013Z,100693.51
2018-07-17T02:41:58.167Z,100694.95
2018-07-17T02:44:28.253Z,100692.23
2018-07-17T02:46:58.417Z,100691.58
2018-07-17T02:49:28.596Z,100693.08
2018-07-17T02:51:58.818Z,100685.33
2018-07-17T02:54:29.059Z,100689.81
2018-07-17T02:56:59.223Z,100694.81
2018-07-17T02:59:29.381Z,100695.81
2018-07-17T03:01:59.575Z,100697.64
2018-07-17T03:04:30.127Z,100687.45
2018-07-17T03:07:00.396Z,100692.66
2018-07-17T03:09:30.691Z,100695.33
2018-07-17T03:12:00.798Z,100696.16
2018-07-17T03:14:31.012Z,100694.83
2018-07-17T03:17:01.149Z,100692.98
2018-07-17T03:19:31.297Z,100696.48
2018-07-17T03:22:01.430Z,100691.59
2018-07-17T03:24:31.645Z,100698.64
2018-07-17T03:27:01.876Z,100695.56
2018-07-17T03:29:32.086Z,100693.97
2018-07-17T03:32:02.193Z,100696.66
2018-07-17T03:34:32.593Z,100698.92
2018-07-17T03:37:02.405Z,100698.83
2018-07-17T03:39:32.718Z,100700.08
2018-07-17T03:42:02.441Z,100703.79
2018-07-17T03:44:32.618Z,100700.46
2018-07-17T03:47:03.208Z,100700.00
2018-07-17T03:49:33.397Z,100697.92
2018-07-17T03:52:03.599Z,100693.80
2018-07-17T03:54:33.802Z,100700.51
2018-07-17T03:57:03.905Z,100701.24
2018-07-17T03:59:34.061Z,100704.63
2018-07-17T04:02:04.254Z,100704.04
2018-07-17T04:04:34.459Z,100705.25
2018-07-17T04:07:04.667Z,100709.72
2018-07-17T04:09:34.856Z,100706.91
2018-07-17T04:12:04.985Z,100706.70
2018-07-17T04:14:35.131Z,100699.27
2018-07-17T04:17:05.229Z,100705.56
2018-07-17T04:19:35.407Z,100710.89
2018-07-17T04:22:05.545Z,100720.75
2018-07-17T04:24:35.731Z,100718.66
2018-07-17T04:27:05.924Z,100722.53
2018-07-17T04:29:36.070Z,100723.14
2018-07-17T04:32:06.197Z,100723.15
2018-07-17T04:34:36.301Z,100722.36
2018-07-17T04:37:06.581Z,100734.88
2018-07-17T04:39:36.807Z,100737.70
2018-07-17T04:42:07.170Z,100738.20
2018-07-17T04:44:37.324Z,100736.30
2018-07-17T04:47:07.776Z,100733.94
2018-07-17T04:49:37.965Z,100735.69
2018-07-17T04:52:08.233Z,100744.56
2018-07-17T04:54:38.399Z,100737.78
2018-07-17T04:57:08.976Z,100744.13
2018-07-17T04:59:38.724Z,100759.93
2018-07-17T05:02:08.953Z,100745.56
2018-07-17T05:04:39.119Z,100754.90
2018-07-17T05:07:09.363Z,100755.82
2018-07-17T05:09:39.538Z,100742.91
2018-07-17T05:12:09.796Z,100758.99
2018-07-17T05:14:40.082Z,100756.23
2018-07-17T05:17:10.270Z,100769.17
2018-07-17T05:19:40.474Z,100774.80
2018-07-17T05:22:11.312Z,100771.73
2018-07-17T05:24:41.483Z,100773.38
2018-07-17T05:27:11.662Z,100779.00
2018-07-17T05:29:41.803Z,100770.01
2018-07-17T05:32:12.286Z,100770.17
2018-07-17T05:34:42.426Z,100770.84
2018-07-17T05:37:12.599Z,100772.48
2018-07-17T05:39:43.044Z,100776.54
2018-07-17T05:42:13.192Z,100772.57
2018-07-17T05:44:43.321Z,100771.30
2018-07-17T05:47:13.536Z,100769.87
2018-07-17T05:49:43.687Z,100767.33
2018-07-17T05:52:13.922Z,100773.68
2018-07-17T05:54:44.034Z,100771.95
2018-07-17T05:57:14.221Z,100768.08
2018-07-17T05:59:44.339Z,100765.11
2018-07-17T06:02:14.897Z,100765.77
2018-07-17T06:04:45.056Z,100762.16
2018-07-17T06:07:15.353Z,100768.52
2018-07-17T06:09:45.123Z,100773.23
2018-07-17T06:12:15.332Z,100772.34
2018-07-17T06:14:45.524Z,100777.00
2018-07-17T06:17:16.094Z,100775.22
2018-07-17T06:19:46.221Z,100767.97
2018-07-17T06:22:16.332Z,100773.36
2018-07-17T06:24:46.602Z,100775.58
2018-07-17T06:27:16.819Z,100772.78
2018-07-17T06:29:47.062Z,100781.92
2018-07-17T06:32:17.522Z,100784.59
2018-07-17T06:34:47.773Z,100781.53
2018-07-17T06:37:18.752Z,100783.63
2018-07-17T06:39:48.920Z,100788.94
2018-07-17T06:42:18.971Z,100791.30
2018-07-17T06:44:49.406Z,100786.33
2018-07-17T06:47:19.653Z,100787.02
2018-07-17T06:49:49.945Z,100796.64
2018-07-17T06:52:20.116Z,100796.94
2018-07-17T06:54:50.277Z,100796.75
2018-07-17T06:57:20.595Z,100793.48
2018-07-17T06:59:50.768Z,100796.25
2018-07-17T07:02:20.888Z,100795.82
2018-07-17T07:04:51.133Z,100796.77
2018-07-17T07:07:21.240Z,100797.16
2018-07-17T07:09:51.476Z,100797.34
2018-07-17T07:12:21.688Z,100800.38
2018-07-17T07:14:51.845Z,100801.80
2018-07-17T07:17:22.136Z,100809.97
2018-07-17T07:19:52.299Z,100803.18
2018-07-17T07:22:22.470Z,100803.03
2018-07-17T07:24:52.623Z,100807.47
2018-07-17T07:27:22.767Z,100801.78
2018-07-17T07:29:52.943Z,100809.28
2018-07-17T07:32:23.039Z,100808.69
2018-07-17T07:34:53.326Z,100803.14
2018-07-17T07:37:23.431Z,100806.21
2018-07-17T07:39:53.545Z,100814.05
2018-07-17T07:42:23.666Z,100815.91
2018-07-17T07:44:53.944Z,100814.45
2018-07-17T07:47:24.075Z,100816.48
2018-07-17T07:49:54.324Z,100822.41
2018-07-17T07:52:24.523Z,100821.06
2018-07-17T07:54:54.747Z,100816.28
2018-07-17T07:57:24.907Z,100822.42
2018-07-17T07:59:55.127Z,100819.71
2018-07-17T08:02:25.441Z,100819.03
2018-07-17T08:04:55.872Z,100816.52
2018-07-17T08:07:30.596Z,100822.30
2018-07-17T08:10:01.010Z,100827.05
2018-07-17T08:12:31.271Z,100832.45
2018-07-17T08:15:02.699Z,100825.84
2018-07-17T08:17:32.991Z,100823.77
2018-07-17T08:20:03.346Z,100828.75
2018-07-17T08:22:33.610Z,100825.64
2018-07-17T08:25:03.817Z,100822.42
2018-07-17T08:27:34.069Z,100820.97
2018-07-17T08:30:04.424Z,100824.80
2018-07-17T08:32:34.647Z,100819.57
2018-07-17T08:35:05.098Z,100820.84
2018-07-17T08:37:35.626Z,100820.66
2018-07-17T08:40:06.270Z,100820.95
2018-07-17T08:42:36.583Z,100820.80
2018-07-17T08:45:14.131Z,100818.98
2018-07-17T08:47:44.399Z,100821.52
2018-07-17T08:50:14.596Z,100819.14
2018-07-17T08:52:44.832Z,100830.37
2018-07-17T08:55:15.011Z,100832.17
2018-07-17T08:57:45.235Z,100835.42
2018-07-17T09:00:15.462Z,100836.38
2018-07-17T09:02:46.380Z,100839.12
2018-07-17T09:05:18.175Z,100837.34
2018-07-17T09:07:48.434Z,100835.11
2018-07-17T09:10:19.174Z,100833.44
2018-07-17T09:12:49.437Z,100838.52
2018-07-17T09:15:19.678Z,100834.06
2018-07-17T09:17:49.784Z,100832.77
2018-07-17T09:20:19.978Z,100831.02
2018-07-17T09:22:50.310Z,100833.07
2018-07-17T09:25:20.481Z,100833.66
2018-07-17T09:27:50.846Z,100833.33
2018-07-17T09:30:21.042Z,100833.34
2018-07-17T09:32:51.196Z,100834.84
2018-07-17T09:35:21.431Z,100838.27
2018-07-17T09:37:51.522Z,100842.70
2018-07-17T09:40:21.669Z,100849.97
2018-07-17T09:42:51.867Z,100852.34
2018-07-17T09:45:22.068Z,100849.74
2018-07-17T09:47:52.196Z,100849.39
2018-07-17T09:50:22.356Z,100848.97
2018-07-17T09:52:52.508Z,100850.94
2018-07-17T09:55:22.664Z,100848.55
2018-07-17T09:57:52.787Z,100847.09
2018-07-17T10:00:27.889Z,100851.30
2018-07-17T10:02:58.353Z,100855.16
2018-07-17T10:05:33.421Z,100853.65
2018-07-17T10:08:10.229Z,100853.96
2018-07-17T10:10:42.635Z,100850.98
2018-07-17T10:13:12.946Z,100853.23
2018-07-17T10:15:43.166Z,100857.72
2018-07-17T10:18:14.014Z,100854.89
2018-07-17T10:20:44.243Z,100860.05
2018-07-17T10:23:14.456Z,100859.53
2018-07-17T10:25:44.727Z,100859.66
2018-07-17T10:28:14.856Z,100860.59
2018-07-17T10:30:48.155Z,100865.26
2018-07-17T10:33:18.343Z,100865.45
2018-07-17T10:35:48.431Z,100861.23
2018-07-17T10:38:18.582Z,100861.52
2018-07-17T10:40:48.733Z,100866.93
2018-07-17T10:43:18.868Z,100863.96
2018-07-17T10:45:49.158Z,100864.30
2018-07-17T10:48:19.490Z,100857.27
2018-07-17T10:50:49.622Z,100860.52
2018-07-17T10:53:19.779Z,100858.94
2018-07-17T10:55:55.322Z,100853.41
2018-07-17T10:58:25.814Z,100854.20
2018-07-17T11:00:56.998Z,100839.56
2018-07-17T11:03:27.836Z,100845.12
2018-07-17T11:05:58.428Z,100829.05
2018-07-17T11:08:28.769Z,100844.68
2018-07-17T11:10:58.908Z,100841.47
2018-07-17T11:13:29.182Z,100836.20
2018-07-17T11:15:59.679Z,100835.25
2018-07-17T11:18:30.022Z,100831.98
2018-07-17T11:21:00.152Z,100828.69
2018-07-17T11:23:30.372Z,100837.64
2018-07-17T11:26:01.084Z,100824.33
2018-07-17T11:28:31.224Z,100831.03
2018-07-17T11:31:01.429Z,100826.95
2018-07-17T11:33:31.601Z,100832.28
2018-07-17T11:36:01.748Z,100827.49
2018-07-17T11:38:32.154Z,100829.55
2018-07-17T11:41:03.182Z,100825.25
2018-07-17T11:43:33.480Z,100827.22
2018-07-17T11:46:03.639Z,100830.36
2018-07-17T11:48:33.836Z,100826.56
2018-07-17T11:51:04.103Z,100821.22
2018-07-17T11:53:34.372Z,100827.91
2018-07-17T11:56:04.702Z,100823.75
2018-07-17T11:58:35.037Z,100820.73
2018-07-17T12:01:05.279Z,100817.77
2018-07-17T12:03:35.537Z,100818.57
2018-07-17T12:06:05.771Z,100821.92
2018-07-17T12:08:35.935Z,100824.98
2018-07-17T12:11:06.311Z,100822.92
2018-07-17T12:13:36.553Z,100814.88
2018-07-17T12:16:07.102Z,100820.77
2018-07-17T12:18:38.906Z,100823.54
2018-07-17T12:21:09.227Z,100830.47
2018-07-17T12:23:39.379Z,100818.84
2018-07-17T12:26:09.690Z,100823.47
2018-07-17T12:28:39.817Z,100816.45
2018-07-17T12:31:09.963Z,100807.41
2018-07-17T12:33:40.611Z,100820.26
2018-07-17T12:36:10.917Z,100816.78
2018-07-17T12:38:41.112Z,100812.30
2018-07-17T12:41:11.472Z,100810.52
2018-07-17T12:43:41.747Z,100805.00
2018-07-17T12:46:11.908Z,100801.57
2018-07-17T12:48:42.063Z,100802.78
2018-07-17T12:51:12.205Z,100811.54
2018-07-17T12:53:42.431Z,100804.92
2018-07-17T12:56:12.707Z,100802.20
2018-07-17T12:58:42.421Z,100802.69
2018-07-17T13:01:12.510Z,100797.08
2018-07-17T13:03:42.646Z,100796.25
2018-07-17T13:06:12.841Z,100808.26
2018-07-17T13:08:43.403Z,100801.72
2018-07-17T13:11:13.791Z,100811.34
2018-07-17T13:13:43.956Z,100804.92
2018-07-17T13:16:14.394Z,100807.27
2018-07-17T13:18:44.601Z,100805.40
2018-07-17T13:21:14.740Z,100807.48
2018-07-17T13:23:44.933Z,100811.63
2018-07-17T13:26:15.186Z,100802.47
2018-07-17T13:28:45.340Z,100807.83
2018-07-17T13:31:15.142Z,100805.39
2018-07-17T13:33:45.308Z,100812.06
2018-07-17T13:36:15.885Z,100806.24
2018-07-17T13:38:46.371Z,100798.59
2018-07-17T13:41:16.534Z,100796.06
2018-07-17T13:43:47.013Z,100799.03
2018-07-17T13:46:17.286Z,100803.33
2018-07-17T13:48:47.474Z,100804.11
2018-07-17T13:51:17.600Z,100787.44
2018-07-17T13:53:47.827Z,100790.95
2018-07-17T13:56:18.038Z,100799.63
2018-07-17T13:58:48.278Z,100798.01
2018-07-17T14:01:19.422Z,100788.33
2018-07-17T14:03:49.573Z,100798.51
2018-07-17T14:06:19.982Z,100782.44
2018-07-17T14:08:50.118Z,100788.05
2018-07-17T14:11:20.298Z,100789.81
2018-07-17T14:13:50.458Z,100789.91
2018-07-17T14:16:20.775Z,100788.80
2018-07-17T14:18:50.918Z,100772.83
2018-07-17T14:21:21.106Z,100789.91
2018-07-17T14:23:51.352Z,100789.47
2018-07-17T14:26:21.496Z,100792.91
2018-07-17T14:28:51.690Z,100787.95
2018-07-17T14:31:21.462Z,100797.80
2018-07-17T14:33:52.149Z,100793.48
2018-07-17T14:36:22.549Z,100787.41
2018-07-17T14:38:52.790Z,100797.04
2018-07-17T14:41:22.997Z,100792.50
2018-07-17T14:43:53.245Z,100792.48
2018-07-17T14:46:23.532Z,100788.72
2018-07-17T14:48:53.769Z,100785.23
2018-07-17T14:51:23.430Z,100786.04
2018-07-17T14:53:53.685Z,100794.23
2018-07-17T14:56:23.814Z,100789.61
2018-07-17T14:58:54.139Z,100795.76
2018-07-17T15:01:24.402Z,100793.45
2018-07-17T15:03:54.736Z,100795.64
2018-07-17T15:06:24.904Z,100800.93
2018-07-17T15:08:55.079Z,100792.54
2018-07-17T15:11:25.381Z,100792.75
2018-07-17T15:13:55.576Z,100798.53
2018-07-17T15:16:25.918Z,100786.19
2018-07-17T15:18:56.151Z,100790.22
2018-07-17T15:21:26.358Z,100787.97
2018-07-17T15:23:56.725Z,100796.30
2018-07-17T15:26:26.899Z,100792.37
2018-07-17T15:28:57.142Z,100795.78
2018-07-17T15:31:27.296Z,100800.61
2018-07-17T15:33:57.446Z,100793.63
2018-07-17T15:36:27.665Z,100789.02
2018-07-17T15:38:57.897Z,100782.41
2018-07-17T15:41:28.064Z,100788.69
2018-07-17T15:43:58.264Z,100796.47
2018-07-17T15:46:28.505Z,100792.91
2018-07-17T15:48:58.695Z,100801.25
2018-07-17T15:51:28.877Z,100805.06
2018-07-17T15:53:59.071Z,100806.99
2018-07-17T15:56:29.209Z,100804.84
2018-07-17T15:58:59.380Z,100805.91
2018-07-17T16:01:29.552Z,100808.86
2018-07-17T16:03:59.712Z,100800.56
2018-07-17T16:06:29.864Z,100799.66
2018-07-17T16:09:00.056Z,100806.42
2018-07-17T16:11:30.328Z,100801.48
2018-07-17T16:14:00.769Z,100808.23
2018-07-17T16:16:30.709Z,100806.05
2018-07-17T16:19:00.850Z,100807.56
2018-07-17T16:21:30.984Z,100800.95
2018-07-17T16:24:01.145Z,100797.59
2018-07-17T16:26:31.306Z,100800.19
2018-07-17T16:29:01.501Z,100797.64
2018-07-17T16:31:31.769Z,100799.83
2018-07-17T16:34:01.937Z,100802.72
2018-07-17T16:36:32.032Z,100801.17
2018-07-17T16:39:02.197Z,100798.48
2018-07-17T16:41:32.382Z,100793.17
2018-07-17T16:44:02.581Z,100790.53
2018-07-17T16:46:32.720Z,100798.39
2018-07-17T16:49:03.144Z,100795.80
2018-07-17T16:51:33.825Z,100799.90
2018-07-17T16:54:04.103Z,100806.55
2018-07-17T16:56:35.768Z,100802.84
2018-07-17T16:59:06.590Z,100797.61
2018-07-17T17:01:37.211Z,100803.58
2018-07-17T17:04:07.525Z,100801.08
2018-07-17T17:06:37.851Z,100798.45
2018-07-17T17:09:11.518Z,100801.25
2018-07-17T17:11:41.867Z,100805.69
2018-07-17T17:14:12.153Z,100804.80
2018-07-17T17:16:42.317Z,100805.68
2018-07-17T17:19:12.594Z,100803.00
2018-07-17T17:21:42.796Z,100807.00
2018-07-17T17:24:12.916Z,100809.23
2018-07-17T17:26:43.059Z,100809.31
2018-07-17T17:29:13.261Z,100809.44
2018-07-17T17:31:43.420Z,100809.85
2018-07-17T17:34:13.579Z,100813.75
2018-07-17T17:36:44.025Z,100829.03
2018-07-17T17:39:14.100Z,100828.52
2018-07-17T17:41:44.206Z,100824.55
2018-07-17T17:44:14.362Z,100825.25
2018-07-17T17:46:45.403Z,100825.79
2018-07-17T17:49:15.562Z,100823.42
2018-07-17T17:51:45.715Z,100824.75
2018-07-17T17:54:15.951Z,100827.03
2018-07-17T17:56:46.235Z,100827.64
2018-07-17T17:59:16.397Z,100832.50
2018-07-17T18:01:46.535Z,100838.39
2018-07-17T18:04:16.700Z,100840.03
2018-07-17T18:06:46.849Z,100844.85
2018-07-17T18:09:17.390Z,100848.31
2018-07-17T18:11:47.568Z,100852.02
2018-07-17T18:14:17.749Z,100861.36
2018-07-17T18:16:47.844Z,100874.13
2018-07-17T18:19:18.049Z,100875.20
2018-07-17T18:21:48.189Z,100876.42
2018-07-17T18:24:18.731Z,100889.11
2018-07-17T18:26:48.973Z,100891.84
2018-07-17T18:29:19.129Z,100904.52
2018-07-17T18:31:49.429Z,100912.26
2018-07-17T18:34:19.641Z,100912.03
2018-07-17T18:36:49.754Z,100919.44
2018-07-17T18:39:20.003Z,100914.98
2018-07-17T18:41:50.221Z,100926.12
2018-07-17T18:44:20.421Z,100939.22
2018-07-17T18:46:50.715Z,100931.70
2018-07-17T18:49:20.910Z,100950.41
2018-07-17T18:51:51.106Z,100955.55
2018-07-17T18:54:21.282Z,100963.16
2018-07-17T18:56:51.397Z,100969.43
2018-07-17T18:59:21.836Z,100977.34
2018-07-17T19:01:52.008Z,100974.62
2018-07-17T19:04:22.335Z,100965.25
2018-07-17T19:06:52.581Z,100980.73
2018-07-17T19:09:22.796Z,100988.89
2018-07-17T19:11:53.042Z,100993.72
2018-07-17T19:14:23.240Z,100999.09
2018-07-17T19:16:53.441Z,100997.98
2018-07-17T19:19:23.744Z,101000.50
2018-07-17T19:21:53.867Z,101010.36
2018-07-17T19:24:24.152Z,101011.16
2018-07-17T19:26:54.305Z,101017.63
2018-07-17T19:29:24.690Z,101016.78
2018-07-17T19:31:54.844Z,101019.03
2018-07-17T19:34:25.047Z,101028.55
2018-07-17T19:36:55.137Z,101023.45
2018-07-17T19:39:25.330Z,101026.70
2018-07-17T19:41:55.463Z,101033.39
2018-07-17T19:44:25.895Z,101036.22
2018-07-17T19:46:56.037Z,101047.07
2018-07-17T19:49:26.218Z,101047.70
2018-07-17T19:51:56.366Z,101047.91
2018-07-17T19:54:26.599Z,101049.37
2018-07-17T19:56:56.718Z,101048.51
2018-07-17T19:59:26.939Z,101053.46
2018-07-17T20:01:57.473Z,101047.99
2018-07-17T20:04:27.655Z,101051.56
2018-07-17T20:06:57.889Z,101055.63
2018-07-17T20:09:28.018Z,101063.83
2018-07-17T20:11:58.211Z,101066.14
2018-07-17T20:14:28.399Z,101070.80
2018-07-17T20:16:58.174Z,101073.77
2018-07-17T20:19:28.363Z,101071.71
2018-07-17T20:21:58.062Z,101070.61
2018-07-17T20:24:28.259Z,101075.02
2018-07-17T20:26:58.408Z,101080.86
2018-07-17T20:29:29.086Z,101086.84
2018-07-17T20:31:59.300Z,101093.88
2018-07-17T20:34:29.736Z,101090.23
2018-07-17T20:36:59.943Z,101101.32
2018-07-17T20:39:30.684Z,101103.66
2018-07-17T20:42:00.883Z,101101.32
2018-07-17T20:44:30.988Z,101110.14
2018-07-17T20:47:01.133Z,101113.33
2018-07-17T20:49:31.698Z,101118.00
2018-07-17T20:52:01.938Z,101110.75
2018-07-17T20:54:32.552Z,101118.42
2018-07-17T20:57:03.171Z,101119.30
2018-07-17T20:59:33.337Z,101128.15
2018-07-17T21:02:03.890Z,101120.22
2018-07-17T21:04:33.975Z,101127.52
2018-07-17T21:07:04.886Z,101124.09
2018-07-17T21:09:35.173Z,101129.71
2018-07-17T21:12:05.783Z,101129.25
2018-07-17T21:14:36.221Z,101128.03
2018-07-17T21:17:13.560Z,101130.60
2018-07-17T21:19:43.792Z,101135.73
2018-07-17T21:22:14.242Z,101133.79
2018-07-17T21:24:44.395Z,101137.81
2018-07-17T21:29:53.145Z,101144.27
2018-07-17T21:32:23.222Z,101144.65
2018-07-17T21:34:53.484Z,101155.48
2018-07-17T21:37:23.611Z,101158.54
2018-07-17T21:39:53.809Z,101159.00
2018-07-17T21:42:24.278Z,101160.33
2018-07-17T21:44:54.603Z,101161.00
2018-07-17T21:47:24.801Z,101167.83
2018-07-17T21:49:55.043Z,101170.23
2018-07-17T21:52:25.172Z,101169.88
2018-07-17T21:54:55.394Z,101169.52
2018-07-17T21:57:25.622Z,101179.34
2018-07-17T21:59:55.795Z,101173.23
2018-07-17T22:02:26.416Z,101185.38
2018-07-17T22:04:56.678Z,101186.67
2018-07-17T22:07:26.948Z,101194.27
2018-07-17T22:09:57.113Z,101191.22
2018-07-17T22:12:27.340Z,101194.84
2018-07-17T22:14:57.502Z,101193.83
2018-07-17T22:17:27.618Z,101192.42
2018-07-17T22:19:57.792Z,101190.38
2018-07-17T22:22:27.921Z,101194.33
2018-07-17T22:24:58.092Z,101189.49
2018-07-17T22:27:28.212Z,101198.42
2018-07-17T22:29:58.555Z,101197.14
2018-07-17T22:32:28.710Z,101204.01
2018-07-17T22:34:58.925Z,101204.16
2018-07-17T22:37:29.202Z,101203.93
2018-07-17T22:39:59.478Z,101205.88
2018-07-17T22:42:29.643Z,101207.61
2018-07-17T22:44:59.819Z,101215.80
2018-07-17T22:47:29.965Z,101213.63
2018-07-17T22:50:00.161Z,101215.22
2018-07-17T22:52:30.358Z,101209.10
2018-07-17T22:55:00.540Z,101210.01
2018-07-17T22:57:30.743Z,101211.47
2018-07-17T23:00:11.420Z,101213.20
2018-07-17T23:02:44.173Z,101213.80
2018-07-17T23:05:16.354Z,101209.12
2018-07-17T23:07:48.672Z,101218.70
2018-07-17T23:10:23.857Z,101215.84
2018-07-17T23:12:55.407Z,101222.91
2018-07-17T23:15:27.364Z,101221.88
2018-07-17T23:17:58.818Z,101230.45
2018-07-17T23:20:29.096Z,101225.52
2018-07-17T23:23:00.320Z,101225.47
2018-07-17T23:25:31.881Z,101228.90
2018-07-17T23:28:02.396Z,101222.38
2018-07-17T23:30:32.745Z,101231.84
2018-07-17T23:33:02.883Z,101237.44
2018-07-17T23:35:33.039Z,101237.45
2018-07-17T23:38:03.259Z,101234.97
2018-07-17T23:40:33.468Z,101236.34
2018-07-17T23:43:03.643Z,101233.63
2018-07-17T23:45:33.767Z,101234.13
2018-07-17T23:48:03.928Z,101235.62
2018-07-17T23:50:34.249Z,101236.61
2018-07-17T23:53:04.373Z,101234.72
2018-07-17T23:55:34.661Z,101238.34
2018-07-17T23:58:04.772Z,101240.14
